sensor_id;sensor_type;location;lat;lon;timestamp;temperature;humidity
9699;DHT22;10089;47.876;8.346;2022-10-13T00:01:13;9.90;99.90
9699;DHT22;10089;47.876;8.346;2022-10-13T00:03:39;9.90;99.90
9699;DHT22;10089;47.876;8.346;2022-10-13T00:06:06;10.10;99.90
9699;DHT22;10089;47.876;8.346;2022-10-13T00:08:32;10.20;99.90
9699;DHT22;10089;47.876;8.346;2022-10-13T00:10:58;10.20;99.90
9699;DHT22;10089;47.876;8.346;2022-10-13T00:13:25;10.30;99.90
9699;DHT22;10089;47.876;8.346;2022-10-13T00:15:50;10.30;99.90
9699;DHT22;10089;47.876;8.346;2022-10-13T00:18:16;10.20;99.90
9699;DHT22;10089;47.876;8.346;2022-10-13T00:20:46;10.20;99.90
9699;DHT22;10089;47.876;8.346;2022-10-13T00:23:12;10.10;99.90
9699;DHT22;10089;47.876;8.346;2022-10-13T00:25:45;10.00;99.90
9699;DHT22;10089;47.876;8.346;2022-10-13T00:28:11;9.90;99.90
9699;DHT22;10089;47.876;8.346;2022-10-13T00:30:37;9.80;99.90
9699;DHT22;10089;47.876;8.346;2022-10-13T00:33:03;9.70;99.90
9699;DHT22;10089;47.876;8.346;2022-10-13T00:35:29;9.70;99.90
9699;DHT22;10089;47.876;8.346;2022-10-13T00:37:55;9.80;99.90
9699;DHT22;10089;47.876;8.346;2022-10-13T00:40:20;9.80;99.90
9699;DHT22;10089;47.876;8.346;2022-10-13T00:42:46;9.90;99.90
9699;DHT22;10089;47.876;8.346;2022-10-13T00:45:25;10.00;99.90
9699;DHT22;10089;47.876;8.346;2022-10-13T00:48:00;10.00;99.90
9699;DHT22;10089;47.876;8.346;2022-10-13T00:50:33;9.90;99.90
9699;DHT22;10089;47.876;8.346;2022-10-13T00:52:59;9.90;99.90
9699;DHT22;10089;47.876;8.346;2022-10-13T00:55:27;9.80;99.90
9699;DHT22;10089;47.876;8.346;2022-10-13T00:57:53;9.90;99.90
9699;DHT22;10089;47.876;8.346;2022-10-13T01:00:21;9.90;99.90
9699;DHT22;10089;47.876;8.346;2022-10-13T01:02:47;10.10;99.90
9699;DHT22;10089;47.876;8.346;2022-10-13T01:05:12;10.40;99.90
9699;DHT22;10089;47.876;8.346;2022-10-13T01:07:38;9.90;99.90
9699;DHT22;10089;47.876;8.346;2022-10-13T01:10:04;9.90;99.90
9699;DHT22;10089;47.876;8.346;2022-10-13T01:12:43;9.80;99.90
9699;DHT22;10089;47.876;8.346;2022-10-13T01:15:27;10.20;99.90
9699;DHT22;10089;47.876;8.346;2022-10-13T01:18:29;9.60;99.90
9699;DHT22;10089;47.876;8.346;2022-10-13T01:26:14;9.30;99.90
9699;DHT22;10089;47.876;8.346;2022-10-13T01:33:53;9.50;99.90
9699;DHT22;10089;47.876;8.346;2022-10-13T01:36:25;9.30;99.90
9699;DHT22;10089;47.876;8.346;2022-10-13T01:39:08;9.40;99.90
9699;DHT22;10089;47.876;8.346;2022-10-13T01:41:37;9.50;99.90
9699;DHT22;10089;47.876;8.346;2022-10-13T01:44:09;9.60;99.90
9699;DHT22;10089;47.876;8.346;2022-10-13T01:46:37;9.70;99.90
9699;DHT22;10089;47.876;8.346;2022-10-13T01:49:08;9.60;99.90
9699;DHT22;10089;47.876;8.346;2022-10-13T01:51:34;9.60;99.90
9699;DHT22;10089;47.876;8.346;2022-10-13T01:54:01;9.50;99.90
9699;DHT22;10089;47.876;8.346;2022-10-13T01:56:26;9.50;99.90
9699;DHT22;10089;47.876;8.346;2022-10-13T01:58:52;9.20;99.90
9699;DHT22;10089;47.876;8.346;2022-10-13T02:06:23;9.00;99.90
9699;DHT22;10089;47.876;8.346;2022-10-13T02:08:55;9.10;99.90
9699;DHT22;10089;47.876;8.346;2022-10-13T02:11:22;9.00;99.90
9699;DHT22;10089;47.876;8.346;2022-10-13T02:13:58;9.00;99.90
9699;DHT22;10089;47.876;8.346;2022-10-13T02:16:26;9.10;99.90
9699;DHT22;10089;47.876;8.346;2022-10-13T02:18:53;9.80;99.90
9699;DHT22;10089;47.876;8.346;2022-10-13T02:21:20;9.30;99.90
9699;DHT22;10089;47.876;8.346;2022-10-13T02:23:46;9.30;99.90
9699;DHT22;10089;47.876;8.346;2022-10-13T02:26:11;9.40;99.90
9699;DHT22;10089;47.876;8.346;2022-10-13T02:28:37;9.30;99.90
9699;DHT22;10089;47.876;8.346;2022-10-13T02:31:03;9.40;99.90
9699;DHT22;10089;47.876;8.346;2022-10-13T02:33:31;9.40;99.90
9699;DHT22;10089;47.876;8.346;2022-10-13T02:35:57;9.30;99.90
9699;DHT22;10089;47.876;8.346;2022-10-13T02:38:22;9.30;99.90
9699;DHT22;10089;47.876;8.346;2022-10-13T02:40:48;9.40;99.90
9699;DHT22;10089;47.876;8.346;2022-10-13T02:43:13;9.10;99.90
9699;DHT22;10089;47.876;8.346;2022-10-13T02:45:39;9.00;99.90
9699;DHT22;10089;47.876;8.346;2022-10-13T02:48:04;9.00;99.90
9699;DHT22;10089;47.876;8.346;2022-10-13T02:50:30;8.90;99.90
9699;DHT22;10089;47.876;8.346;2022-10-13T02:52:56;8.90;99.90
9699;DHT22;10089;47.876;8.346;2022-10-13T02:55:21;9.20;99.90
9699;DHT22;10089;47.876;8.346;2022-10-13T02:57:47;9.00;99.90
9699;DHT22;10089;47.876;8.346;2022-10-13T03:00:13;9.00;99.90
9699;DHT22;10089;47.876;8.346;2022-10-13T03:02:39;9.10;99.90
9699;DHT22;10089;47.876;8.346;2022-10-13T03:05:04;9.20;99.90
9699;DHT22;10089;47.876;8.346;2022-10-13T03:07:30;9.20;99.90
9699;DHT22;10089;47.876;8.346;2022-10-13T03:09:55;9.10;99.90
9699;DHT22;10089;47.876;8.346;2022-10-13T03:12:21;9.20;99.90
9699;DHT22;10089;47.876;8.346;2022-10-13T03:14:46;9.10;99.90
9699;DHT22;10089;47.876;8.346;2022-10-13T03:17:12;9.20;99.90
9699;DHT22;10089;47.876;8.346;2022-10-13T03:19:37;9.10;99.90
9699;DHT22;10089;47.876;8.346;2022-10-13T03:22:03;9.10;99.90
9699;DHT22;10089;47.876;8.346;2022-10-13T03:24:28;9.00;99.90
9699;DHT22;10089;47.876;8.346;2022-10-13T03:26:54;9.00;99.90
9699;DHT22;10089;47.876;8.346;2022-10-13T03:29:20;8.90;99.90
9699;DHT22;10089;47.876;8.346;2022-10-13T03:31:46;8.90;99.90
9699;DHT22;10089;47.876;8.346;2022-10-13T03:34:14;8.70;99.90
9699;DHT22;10089;47.876;8.346;2022-10-13T03:36:39;8.80;99.90
9699;DHT22;10089;47.876;8.346;2022-10-13T03:39:05;8.80;99.90
9699;DHT22;10089;47.876;8.346;2022-10-13T03:41:31;8.90;99.90
9699;DHT22;10089;47.876;8.346;2022-10-13T03:43:56;8.80;99.90
9699;DHT22;10089;47.876;8.346;2022-10-13T03:46:22;8.80;99.90
9699;DHT22;10089;47.876;8.346;2022-10-13T03:48:48;8.70;99.90
9699;DHT22;10089;47.876;8.346;2022-10-13T03:51:18;8.80;99.90
9699;DHT22;10089;47.876;8.346;2022-10-13T03:53:44;8.80;99.90
9699;DHT22;10089;47.876;8.346;2022-10-13T03:56:14;8.80;99.90
9699;DHT22;10089;47.876;8.346;2022-10-13T03:58:47;8.60;99.90
9699;DHT22;10089;47.876;8.346;2022-10-13T04:01:18;8.50;99.90
9699;DHT22;10089;47.876;8.346;2022-10-13T04:03:43;8.50;99.90
9699;DHT22;10089;47.876;8.346;2022-10-13T04:06:09;8.50;99.90
9699;DHT22;10089;47.876;8.346;2022-10-13T04:08:35;8.60;99.90
9699;DHT22;10089;47.876;8.346;2022-10-13T04:11:03;8.50;99.90
9699;DHT22;10089;47.876;8.346;2022-10-13T04:13:29;8.30;99.90
9699;DHT22;10089;47.876;8.346;2022-10-13T04:15:55;8.10;99.90
9699;DHT22;10089;47.876;8.346;2022-10-13T04:18:20;8.10;99.90
9699;DHT22;10089;47.876;8.346;2022-10-13T04:20:46;8.10;99.90
9699;DHT22;10089;47.876;8.346;2022-10-13T04:23:11;8.10;99.90
9699;DHT22;10089;47.876;8.346;2022-10-13T04:25:37;8.10;99.90
9699;DHT22;10089;47.876;8.346;2022-10-13T04:28:03;8.10;99.90
9699;DHT22;10089;47.876;8.346;2022-10-13T04:30:31;8.10;99.90
9699;DHT22;10089;47.876;8.346;2022-10-13T04:32:56;8.00;99.90
9699;DHT22;10089;47.876;8.346;2022-10-13T04:35:22;8.00;99.90
9699;DHT22;10089;47.876;8.346;2022-10-13T04:37:47;8.10;99.90
9699;DHT22;10089;47.876;8.346;2022-10-13T04:40:13;8.00;99.90
9699;DHT22;10089;47.876;8.346;2022-10-13T04:42:39;7.90;99.90
9699;DHT22;10089;47.876;8.346;2022-10-13T04:45:05;7.90;99.90
9699;DHT22;10089;47.876;8.346;2022-10-13T04:47:31;7.80;99.90
9699;DHT22;10089;47.876;8.346;2022-10-13T04:49:56;7.80;99.90
9699;DHT22;10089;47.876;8.346;2022-10-13T04:52:22;7.80;99.90
9699;DHT22;10089;47.876;8.346;2022-10-13T04:54:47;7.70;99.90
9699;DHT22;10089;47.876;8.346;2022-10-13T04:57:13;7.70;99.90
9699;DHT22;10089;47.876;8.346;2022-10-13T04:59:38;7.60;99.90
9699;DHT22;10089;47.876;8.346;2022-10-13T05:02:04;7.50;99.90
9699;DHT22;10089;47.876;8.346;2022-10-13T05:04:30;7.50;99.90
9699;DHT22;10089;47.876;8.346;2022-10-13T05:06:55;7.50;99.90
9699;DHT22;10089;47.876;8.346;2022-10-13T05:09:21;7.60;99.90
9699;DHT22;10089;47.876;8.346;2022-10-13T05:11:46;7.60;99.90
9699;DHT22;10089;47.876;8.346;2022-10-13T05:14:12;7.60;99.90
9699;DHT22;10089;47.876;8.346;2022-10-13T05:16:37;7.70;99.90
9699;DHT22;10089;47.876;8.346;2022-10-13T05:19:03;7.60;99.90
9699;DHT22;10089;47.876;8.346;2022-10-13T05:21:29;7.70;99.90
9699;DHT22;10089;47.876;8.346;2022-10-13T05:23:54;7.70;99.90
9699;DHT22;10089;47.876;8.346;2022-10-13T05:26:30;7.60;99.90
9699;DHT22;10089;47.876;8.346;2022-10-13T05:28:58;7.80;99.90
9699;DHT22;10089;47.876;8.346;2022-10-13T05:31:24;7.50;99.90
9699;DHT22;10089;47.876;8.346;2022-10-13T05:33:50;7.40;99.90
9699;DHT22;10089;47.876;8.346;2022-10-13T05:36:17;7.40;99.90
9699;DHT22;10089;47.876;8.346;2022-10-13T05:38:43;7.50;99.90
9699;DHT22;10089;47.876;8.346;2022-10-13T05:41:13;7.50;99.90
9699;DHT22;10089;47.876;8.346;2022-10-13T05:43:39;7.50;99.90
9699;DHT22;10089;47.876;8.346;2022-10-13T05:46:05;7.50;99.90
9699;DHT22;10089;47.876;8.346;2022-10-13T05:48:30;7.50;99.90
9699;DHT22;10089;47.876;8.346;2022-10-13T05:50:56;7.40;99.90
9699;DHT22;10089;47.876;8.346;2022-10-13T05:53:23;6.30;99.90
9699;DHT22;10089;47.876;8.346;2022-10-13T05:55:50;7.60;99.90
9699;DHT22;10089;47.876;8.346;2022-10-13T05:58:16;7.50;99.90
9699;DHT22;10089;47.876;8.346;2022-10-13T06:00:42;7.50;99.90
9699;DHT22;10089;47.876;8.346;2022-10-13T06:03:18;7.50;99.90
9699;DHT22;10089;47.876;8.346;2022-10-13T06:05:45;7.60;99.90
9699;DHT22;10089;47.876;8.346;2022-10-13T06:08:15;7.60;99.90
9699;DHT22;10089;47.876;8.346;2022-10-13T06:10:41;7.60;99.90
9699;DHT22;10089;47.876;8.346;2022-10-13T06:13:07;7.70;99.90
9699;DHT22;10089;47.876;8.346;2022-10-13T06:15:33;7.80;99.90
9699;DHT22;10089;47.876;8.346;2022-10-13T06:17:58;8.10;99.90
9699;DHT22;10089;47.876;8.346;2022-10-13T06:20:24;8.00;99.90
9699;DHT22;10089;47.876;8.346;2022-10-13T06:22:54;7.90;99.90
9699;DHT22;10089;47.876;8.346;2022-10-13T06:25:20;8.00;99.90
9699;DHT22;10089;47.876;8.346;2022-10-13T06:27:46;8.00;99.90
9699;DHT22;10089;47.876;8.346;2022-10-13T06:30:11;8.10;99.90
9699;DHT22;10089;47.876;8.346;2022-10-13T06:32:37;8.10;99.90
9699;DHT22;10089;47.876;8.346;2022-10-13T06:35:02;8.10;99.90
9699;DHT22;10089;47.876;8.346;2022-10-13T06:37:31;8.20;99.90
9699;DHT22;10089;47.876;8.346;2022-10-13T06:40:10;8.30;99.90
9699;DHT22;10089;47.876;8.346;2022-10-13T06:55:36;9.90;99.90
9699;DHT22;10089;47.876;8.346;2022-10-13T06:58:12;11.50;99.90
9699;DHT22;10089;47.876;8.346;2022-10-13T07:00:39;9.00;99.90
9699;DHT22;10089;47.876;8.346;2022-10-13T07:03:26;9.20;99.90
9699;DHT22;10089;47.876;8.346;2022-10-13T07:16:04;10.00;99.90
9699;DHT22;10089;47.876;8.346;2022-10-13T07:21:23;10.00;99.90
9699;DHT22;10089;47.876;8.346;2022-10-13T07:33:44;11.40;99.90
9699;DHT22;10089;47.876;8.346;2022-10-13T07:36:13;10.30;99.90
9699;DHT22;10089;47.876;8.346;2022-10-13T07:38:38;10.10;99.90
9699;DHT22;10089;47.876;8.346;2022-10-13T07:41:05;9.90;99.90
9699;DHT22;10089;47.876;8.346;2022-10-13T07:43:31;10.10;99.90
9699;DHT22;10089;47.876;8.346;2022-10-13T07:45:57;10.30;99.90
9699;DHT22;10089;47.876;8.346;2022-10-13T07:48:23;10.40;99.90
9699;DHT22;10089;47.876;8.346;2022-10-13T07:50:48;10.50;99.90
9699;DHT22;10089;47.876;8.346;2022-10-13T07:53:14;10.70;99.90
9699;DHT22;10089;47.876;8.346;2022-10-13T07:55:39;10.50;99.90
9699;DHT22;10089;47.876;8.346;2022-10-13T07:58:05;10.50;99.90
9699;DHT22;10089;47.876;8.346;2022-10-13T08:00:31;10.70;99.90
9699;DHT22;10089;47.876;8.346;2022-10-13T08:02:56;10.60;99.90
9699;DHT22;10089;47.876;8.346;2022-10-13T08:05:43;10.70;99.90
9699;DHT22;10089;47.876;8.346;2022-10-13T08:08:26;11.00;99.90
9699;DHT22;10089;47.876;8.346;2022-10-13T08:14:18;10.80;99.90
9699;DHT22;10089;47.876;8.346;2022-10-13T08:16:44;10.70;99.90
9699;DHT22;10089;47.876;8.346;2022-10-13T08:19:13;10.90;99.90
9699;DHT22;10089;47.876;8.346;2022-10-13T08:21:39;10.80;99.90
9699;DHT22;10089;47.876;8.346;2022-10-13T08:24:09;10.80;99.90
9699;DHT22;10089;47.876;8.346;2022-10-13T08:26:35;10.80;99.90
9699;DHT22;10089;47.876;8.346;2022-10-13T08:29:02;10.90;99.90
9699;DHT22;10089;47.876;8.346;2022-10-13T08:31:28;11.10;99.90
9699;DHT22;10089;47.876;8.346;2022-10-13T08:33:53;11.20;99.90
9699;DHT22;10089;47.876;8.346;2022-10-13T08:36:19;11.20;99.90
9699;DHT22;10089;47.876;8.346;2022-10-13T08:38:44;11.10;99.90
9699;DHT22;10089;47.876;8.346;2022-10-13T08:41:20;10.90;99.90
9699;DHT22;10089;47.876;8.346;2022-10-13T08:43:48;11.10;99.90
9699;DHT22;10089;47.876;8.346;2022-10-13T08:46:15;11.40;99.90
9699;DHT22;10089;47.876;8.346;2022-10-13T08:48:43;11.60;99.90
9699;DHT22;10089;47.876;8.346;2022-10-13T08:51:10;11.50;99.90
9699;DHT22;10089;47.876;8.346;2022-10-13T08:53:40;11.70;99.90
9699;DHT22;10089;47.876;8.346;2022-10-13T08:56:14;11.80;99.90
9699;DHT22;10089;47.876;8.346;2022-10-13T08:58:41;11.80;99.90
9699;DHT22;10089;47.876;8.346;2022-10-13T09:03:47;12.10;99.90
9699;DHT22;10089;47.876;8.346;2022-10-13T09:06:17;12.20;99.90
9699;DHT22;10089;47.876;8.346;2022-10-13T09:08:46;12.10;99.90
9699;DHT22;10089;47.876;8.346;2022-10-13T09:11:13;12.00;99.90
9699;DHT22;10089;47.876;8.346;2022-10-13T09:13:38;11.90;99.90
9699;DHT22;10089;47.876;8.346;2022-10-13T09:16:04;12.20;99.90
9699;DHT22;10089;47.876;8.346;2022-10-13T09:18:30;12.20;99.90
9699;DHT22;10089;47.876;8.346;2022-10-13T09:23:34;12.00;99.90
9699;DHT22;10089;47.876;8.346;2022-10-13T09:25:59;11.90;99.90
9699;DHT22;10089;47.876;8.346;2022-10-13T09:28:31;11.90;99.90
9699;DHT22;10089;47.876;8.346;2022-10-13T09:31:13;12.20;99.90
9699;DHT22;10089;47.876;8.346;2022-10-13T09:33:39;12.30;99.90
9699;DHT22;10089;47.876;8.346;2022-10-13T09:36:12;12.20;99.90
9699;DHT22;10089;47.876;8.346;2022-10-13T09:38:38;12.30;99.90
9699;DHT22;10089;47.876;8.346;2022-10-13T09:43:40;12.30;99.90
9699;DHT22;10089;47.876;8.346;2022-10-13T09:46:27;12.30;99.90
9699;DHT22;10089;47.876;8.346;2022-10-13T09:48:55;12.40;99.90
9699;DHT22;10089;47.876;8.346;2022-10-13T09:51:40;12.40;99.90
9699;DHT22;10089;47.876;8.346;2022-10-13T09:54:23;12.60;99.90
9699;DHT22;10089;47.876;8.346;2022-10-13T09:56:50;12.80;99.90
9699;DHT22;10089;47.876;8.346;2022-10-13T09:59:25;12.50;99.90
9699;DHT22;10089;47.876;8.346;2022-10-13T10:01:52;12.50;99.90
9699;DHT22;10089;47.876;8.346;2022-10-13T10:04:21;12.70;99.90
9699;DHT22;10089;47.876;8.346;2022-10-13T10:06:48;12.70;99.90
9699;DHT22;10089;47.876;8.346;2022-10-13T10:11:52;12.80;99.90
9699;DHT22;10089;47.876;8.346;2022-10-13T10:14:28;12.90;99.90
9699;DHT22;10089;47.876;8.346;2022-10-13T10:19:27;12.70;99.90
9699;DHT22;10089;47.876;8.346;2022-10-13T10:27:00;12.90;99.90
9699;DHT22;10089;47.876;8.346;2022-10-13T10:31:57;12.80;99.90
9699;DHT22;10089;47.876;8.346;2022-10-13T10:39:46;13.30;99.90
9699;DHT22;10089;47.876;8.346;2022-10-13T10:44:46;13.30;99.90
9699;DHT22;10089;47.876;8.346;2022-10-13T10:47:19;13.70;99.90
9699;DHT22;10089;47.876;8.346;2022-10-13T10:49:46;13.70;99.90
9699;DHT22;10089;47.876;8.346;2022-10-13T10:52:21;13.50;99.90
9699;DHT22;10089;47.876;8.346;2022-10-13T10:57:22;13.70;99.90
9699;DHT22;10089;47.876;8.346;2022-10-13T10:59:56;13.60;99.90
9699;DHT22;10089;47.876;8.346;2022-10-13T11:04:49;13.90;99.90
9699;DHT22;10089;47.876;8.346;2022-10-13T11:15:00;13.40;99.90
9699;DHT22;10089;47.876;8.346;2022-10-13T11:17:27;13.60;99.90
9699;DHT22;10089;47.876;8.346;2022-10-13T11:19:53;13.70;99.90
9699;DHT22;10089;47.876;8.346;2022-10-13T11:22:20;13.90;99.90
9699;DHT22;10089;47.876;8.346;2022-10-13T11:24:53;13.80;99.90
9699;DHT22;10089;47.876;8.346;2022-10-13T11:27:23;13.40;99.90
9699;DHT22;10089;47.876;8.346;2022-10-13T11:29:50;13.50;99.90
9699;DHT22;10089;47.876;8.346;2022-10-13T11:34:58;13.60;99.90
9699;DHT22;10089;47.876;8.346;2022-10-13T11:37:25;13.80;99.90
9699;DHT22;10089;47.876;8.346;2022-10-13T11:52:19;15.10;99.90
9699;DHT22;10089;47.876;8.346;2022-10-13T11:54:50;15.30;99.90
9699;DHT22;10089;47.876;8.346;2022-10-13T11:57:21;15.20;99.90
9699;DHT22;10089;47.876;8.346;2022-10-13T11:59:48;15.40;1.00
9699;DHT22;10089;47.876;8.346;2022-10-13T12:02:14;15.60;99.90
9699;DHT22;10089;47.876;8.346;2022-10-13T12:07:30;15.50;1.00
9699;DHT22;10089;47.876;8.346;2022-10-13T12:09:56;15.50;99.90
9699;DHT22;10089;47.876;8.346;2022-10-13T12:12:22;15.50;1.00
9699;DHT22;10089;47.876;8.346;2022-10-13T12:14:52;15.40;1.00
9699;DHT22;10089;47.876;8.346;2022-10-13T12:17:36;15.30;1.00
9699;DHT22;10089;47.876;8.346;2022-10-13T12:20:22;15.30;99.90
9699;DHT22;10089;47.876;8.346;2022-10-13T12:22:48;15.30;1.00
9699;DHT22;10089;47.876;8.346;2022-10-13T12:25:15;15.40;1.00
9699;DHT22;10089;47.876;8.346;2022-10-13T12:27:43;15.20;99.90
9699;DHT22;10089;47.876;8.346;2022-10-13T12:30:29;15.20;1.00
9699;DHT22;10089;47.876;8.346;2022-10-13T12:32:56;15.40;1.00
9699;DHT22;10089;47.876;8.346;2022-10-13T12:35:25;15.40;99.90
9699;DHT22;10089;47.876;8.346;2022-10-13T12:37:51;15.20;98.30
9699;DHT22;10089;47.876;8.346;2022-10-13T12:40:18;15.30;99.90
9699;DHT22;10089;47.876;8.346;2022-10-13T12:42:43;15.50;99.90
9699;DHT22;10089;47.876;8.346;2022-10-13T12:45:15;15.60;99.90
9699;DHT22;10089;47.876;8.346;2022-10-13T12:55:46;15.70;1.00
9699;DHT22;10089;47.876;8.346;2022-10-13T12:58:25;15.70;99.90
9699;DHT22;10089;47.876;8.346;2022-10-13T13:01:08;15.80;99.90
9699;DHT22;10089;47.876;8.346;2022-10-13T13:03:42;15.80;1.00
9699;DHT22;10089;47.876;8.346;2022-10-13T13:08:40;15.60;99.90
9699;DHT22;10089;47.876;8.346;2022-10-13T13:11:07;15.60;99.90
9699;DHT22;10089;47.876;8.346;2022-10-13T13:13:43;15.60;32.10
9699;DHT22;10089;47.876;8.346;2022-10-13T13:16:13;15.60;11.70
9699;DHT22;10089;47.876;8.346;2022-10-13T13:18:39;15.70;99.90
9699;DHT22;10089;47.876;8.346;2022-10-13T13:21:06;15.40;99.90
9699;DHT22;10089;47.876;8.346;2022-10-13T13:23:32;15.50;99.90
9699;DHT22;10089;47.876;8.346;2022-10-13T13:26:04;15.60;94.20
9699;DHT22;10089;47.876;8.346;2022-10-13T13:28:31;15.80;81.00
9699;DHT22;10089;47.876;8.346;2022-10-13T13:30:57;15.70;1.00
9699;DHT22;10089;47.876;8.346;2022-10-13T13:33:23;15.60;1.00
9699;DHT22;10089;47.876;8.346;2022-10-13T13:35:48;15.30;1.00
9699;DHT22;10089;47.876;8.346;2022-10-13T13:38:14;15.40;1.00
9699;DHT22;10089;47.876;8.346;2022-10-13T13:40:39;15.40;99.90
9699;DHT22;10089;47.876;8.346;2022-10-13T13:43:05;15.50;99.90
9699;DHT22;10089;47.876;8.346;2022-10-13T13:45:31;15.50;99.90
9699;DHT22;10089;47.876;8.346;2022-10-13T13:47:59;15.50;99.90
9699;DHT22;10089;47.876;8.346;2022-10-13T13:50:25;15.40;99.90
9699;DHT22;10089;47.876;8.346;2022-10-13T13:52:51;15.40;99.90
9699;DHT22;10089;47.876;8.346;2022-10-13T13:55:16;15.30;1.00
9699;DHT22;10089;47.876;8.346;2022-10-13T13:57:42;15.30;1.00
9699;DHT22;10089;47.876;8.346;2022-10-13T14:00:11;15.40;1.00
9699;DHT22;10089;47.876;8.346;2022-10-13T14:02:37;15.30;1.00
9699;DHT22;10089;47.876;8.346;2022-10-13T14:05:03;15.30;1.00
9699;DHT22;10089;47.876;8.346;2022-10-13T14:07:29;15.40;1.00
9699;DHT22;10089;47.876;8.346;2022-10-13T14:09:55;15.00;1.00
9699;DHT22;10089;47.876;8.346;2022-10-13T14:12:20;15.10;1.00
9699;DHT22;10089;47.876;8.346;2022-10-13T14:14:46;15.10;1.00
9699;DHT22;10089;47.876;8.346;2022-10-13T14:17:11;15.20;99.90
9699;DHT22;10089;47.876;8.346;2022-10-13T14:19:37;15.30;99.90
9699;DHT22;10089;47.876;8.346;2022-10-13T14:22:02;15.40;1.00
9699;DHT22;10089;47.876;8.346;2022-10-13T14:24:29;15.40;1.00
9699;DHT22;10089;47.876;8.346;2022-10-13T14:26:54;15.40;1.00
9699;DHT22;10089;47.876;8.346;2022-10-13T14:29:20;15.20;1.00
9699;DHT22;10089;47.876;8.346;2022-10-13T14:31:46;15.20;1.00
9699;DHT22;10089;47.876;8.346;2022-10-13T14:34:11;15.10;1.00
9699;DHT22;10089;47.876;8.346;2022-10-13T14:36:37;15.00;1.00
9699;DHT22;10089;47.876;8.346;2022-10-13T14:39:02;14.90;1.00
9699;DHT22;10089;47.876;8.346;2022-10-13T14:41:28;14.90;1.00
9699;DHT22;10089;47.876;8.346;2022-10-13T14:43:54;14.90;1.00
9699;DHT22;10089;47.876;8.346;2022-10-13T14:46:20;14.90;1.00
9699;DHT22;10089;47.876;8.346;2022-10-13T14:48:45;14.90;1.00
9699;DHT22;10089;47.876;8.346;2022-10-13T14:51:11;14.90;1.00
9699;DHT22;10089;47.876;8.346;2022-10-13T14:53:41;14.80;1.00
9699;DHT22;10089;47.876;8.346;2022-10-13T14:56:40;14.90;1.00
9699;DHT22;10089;47.876;8.346;2022-10-13T14:58:59;14.90;99.90
9699;DHT22;10089;47.876;8.346;2022-10-13T15:01:25;15.00;99.90
9699;DHT22;10089;47.876;8.346;2022-10-13T15:03:50;15.00;1.00
9699;DHT22;10089;47.876;8.346;2022-10-13T15:06:20;15.00;99.90
9699;DHT22;10089;47.876;8.346;2022-10-13T15:08:46;14.90;78.40
9699;DHT22;10089;47.876;8.346;2022-10-13T15:11:11;14.90;99.90
9699;DHT22;10089;47.876;8.346;2022-10-13T15:13:37;15.00;99.90
9699;DHT22;10089;47.876;8.346;2022-10-13T15:16:03;15.00;99.90
9699;DHT22;10089;47.876;8.346;2022-10-13T15:18:29;15.00;1.00
9699;DHT22;10089;47.876;8.346;2022-10-13T15:20:54;15.00;99.90
9699;DHT22;10089;47.876;8.346;2022-10-13T15:23:20;15.10;99.90
9699;DHT22;10089;47.876;8.346;2022-10-13T15:25:53;15.10;99.90
9699;DHT22;10089;47.876;8.346;2022-10-13T15:28:21;15.00;1.00
9699;DHT22;10089;47.876;8.346;2022-10-13T15:30:47;14.80;99.90
9699;DHT22;10089;47.876;8.346;2022-10-13T15:33:12;14.70;1.00
9699;DHT22;10089;47.876;8.346;2022-10-13T15:35:38;14.70;99.90
9699;DHT22;10089;47.876;8.346;2022-10-13T15:38:03;14.60;1.00
9699;DHT22;10089;47.876;8.346;2022-10-13T15:40:29;14.50;99.90
9699;DHT22;10089;47.876;8.346;2022-10-13T15:43:00;14.50;1.00
9699;DHT22;10089;47.876;8.346;2022-10-13T15:45:26;14.40;1.00
9699;DHT22;10089;47.876;8.346;2022-10-13T15:47:52;14.40;99.90
9699;DHT22;10089;47.876;8.346;2022-10-13T15:50:17;14.40;1.00
9699;DHT22;10089;47.876;8.346;2022-10-13T15:52:43;14.40;99.90
9699;DHT22;10089;47.876;8.346;2022-10-13T15:55:10;14.30;99.90
9699;DHT22;10089;47.876;8.346;2022-10-13T15:57:36;14.20;1.00
9699;DHT22;10089;47.876;8.346;2022-10-13T16:00:02;14.20;62.30
9699;DHT22;10089;47.876;8.346;2022-10-13T16:02:28;14.10;99.90
9699;DHT22;10089;47.876;8.346;2022-10-13T16:04:54;14.00;1.00
9699;DHT22;10089;47.876;8.346;2022-10-13T16:07:20;14.00;1.00
9699;DHT22;10089;47.876;8.346;2022-10-13T16:09:46;14.00;99.90
9699;DHT22;10089;47.876;8.346;2022-10-13T16:12:12;14.00;99.90
9699;DHT22;10089;47.876;8.346;2022-10-13T16:14:37;13.90;1.00
9699;DHT22;10089;47.876;8.346;2022-10-13T16:17:03;13.90;1.00
9699;DHT22;10089;47.876;8.346;2022-10-13T16:19:28;13.90;27.60
9699;DHT22;10089;47.876;8.346;2022-10-13T16:21:54;13.80;1.00
9699;DHT22;10089;47.876;8.346;2022-10-13T16:24:19;13.80;99.90
9699;DHT22;10089;47.876;8.346;2022-10-13T16:26:45;13.70;1.00
9699;DHT22;10089;47.876;8.346;2022-10-13T16:29:11;13.70;1.00
9699;DHT22;10089;47.876;8.346;2022-10-13T16:31:36;13.60;99.90
9699;DHT22;10089;47.876;8.346;2022-10-13T16:34:02;13.60;99.90
9699;DHT22;10089;47.876;8.346;2022-10-13T16:36:27;13.60;99.90
9699;DHT22;10089;47.876;8.346;2022-10-13T16:38:53;13.60;99.90
9699;DHT22;10089;47.876;8.346;2022-10-13T16:41:19;13.50;99.90
9699;DHT22;10089;47.876;8.346;2022-10-13T16:43:48;13.50;1.00
9699;DHT22;10089;47.876;8.346;2022-10-13T16:46:15;13.50;1.00
9699;DHT22;10089;47.876;8.346;2022-10-13T16:48:41;13.40;1.00
9699;DHT22;10089;47.876;8.346;2022-10-13T16:51:07;13.40;1.00
9699;DHT22;10089;47.876;8.346;2022-10-13T16:53:34;13.30;1.00
9699;DHT22;10089;47.876;8.346;2022-10-13T16:55:59;13.30;1.00
9699;DHT22;10089;47.876;8.346;2022-10-13T16:58:26;13.20;1.00
9699;DHT22;10089;47.876;8.346;2022-10-13T17:00:52;13.20;1.00
9699;DHT22;10089;47.876;8.346;2022-10-13T17:03:17;13.20;1.00
9699;DHT22;10089;47.876;8.346;2022-10-13T17:05:46;13.10;92.80
9699;DHT22;10089;47.876;8.346;2022-10-13T17:08:11;13.00;98.60
9699;DHT22;10089;47.876;8.346;2022-10-13T17:10:37;13.00;99.90
9699;DHT22;10089;47.876;8.346;2022-10-13T17:13:02;13.00;99.90
9699;DHT22;10089;47.876;8.346;2022-10-13T17:15:28;12.90;99.90
9699;DHT22;10089;47.876;8.346;2022-10-13T17:17:54;12.90;99.90
9699;DHT22;10089;47.876;8.346;2022-10-13T17:20:20;12.80;99.90
9699;DHT22;10089;47.876;8.346;2022-10-13T17:22:46;12.60;99.90
9699;DHT22;10089;47.876;8.346;2022-10-13T17:25:11;12.50;99.90
9699;DHT22;10089;47.876;8.346;2022-10-13T17:27:37;12.50;99.90
9699;DHT22;10089;47.876;8.346;2022-10-13T17:30:03;12.50;99.90
9699;DHT22;10089;47.876;8.346;2022-10-13T17:32:29;12.50;99.90
9699;DHT22;10089;47.876;8.346;2022-10-13T17:34:54;12.60;99.90
9699;DHT22;10089;47.876;8.346;2022-10-13T17:37:21;12.50;99.90
9699;DHT22;10089;47.876;8.346;2022-10-13T17:39:47;12.50;99.90
9699;DHT22;10089;47.876;8.346;2022-10-13T17:42:12;12.50;99.90
9699;DHT22;10089;47.876;8.346;2022-10-13T17:44:38;12.50;99.90
9699;DHT22;10089;47.876;8.346;2022-10-13T17:47:03;12.40;99.90
9699;DHT22;10089;47.876;8.346;2022-10-13T17:49:29;12.40;99.90
9699;DHT22;10089;47.876;8.346;2022-10-13T17:51:55;12.30;99.90
9699;DHT22;10089;47.876;8.346;2022-10-13T17:54:21;12.40;99.90
9699;DHT22;10089;47.876;8.346;2022-10-13T17:56:53;12.30;99.90
9699;DHT22;10089;47.876;8.346;2022-10-13T17:59:19;12.30;99.90
9699;DHT22;10089;47.876;8.346;2022-10-13T18:01:45;12.30;99.90